Time;durP1;ratioP1;P1;durP2;ratioP2;P2;SDS_P1;SDS_P2;PMS_P1;PMS_P2;Temp;Humidity;BMP_temperature;BMP_pressure;BME280_temperature;BME280_humidity;BME280_pressure;Samples;Min_cycle;Max_cycle;Signal;HPM_P1;HPM_P2
2023/04/10 00:01:19;;;;;;;72.63;35.47;;;7.00;29.10;;;;;;5029798;28;20440;-51
2023/04/10 00:03:45;;;;;;;75.50;36.80;;;6.90;28.90;;;;;;5031217;28;20673;-51
2023/04/10 00:06:10;;;;;;;62.90;32.60;;;6.90;99.90;;;;;;5029468;28;20236;-52
2023/04/10 00:08:36;;;;;;;61.70;33.33;;;6.90;16.30;;;;;;5031184;28;20229;-50
2023/04/10 00:11:02;;;;;;;64.27;31.33;;;7.00;1.00;;;;;;5028837;28;20183;-50
2023/04/10 00:13:28;;;;;;;56.47;30.50;;;7.00;99.90;;;;;;5028437;28;20195;-52
2023/04/10 00:15:54;;;;;;;54.00;30.07;;;7.00;99.90;;;;;;5030219;28;20430;-50
2023/04/10 00:18:20;;;;;;;57.70;31.60;;;7.00;99.90;;;;;;5026845;28;20441;-51
2023/04/10 00:20:45;;;;;;;66.13;32.67;;;7.00;99.90;;;;;;5029883;28;20612;-52
2023/04/10 00:23:11;;;;;;;57.00;31.47;;;7.00;92.40;;;;;;5029915;28;20655;-51
2023/04/10 00:25:37;;;;;;;67.87;32.80;;;7.00;1.00;;;;;;5031667;28;20190;-51
2023/04/10 00:28:02;;;;;;;73.93;38.80;;;6.90;1.00;;;;;;5029335;28;20231;-51
2023/04/10 00:30:28;;;;;;;74.47;35.80;;;6.90;1.00;;;;;;5031182;28;20277;-51
2023/04/10 00:32:53;;;;;;;105.63;45.37;;;6.90;1.00;;;;;;5029079;28;20190;-51
2023/04/10 00:35:19;;;;;;;105.83;50.10;;;6.90;1.00;;;;;;5030084;28;20199;-52
2023/04/10 00:37:45;;;;;;;112.40;53.10;;;6.80;1.00;;;;;;5030716;28;20190;-51
2023/04/10 00:40:11;;;;;;;122.10;58.20;;;6.80;1.00;;;;;;5029576;28;20238;-51
2023/04/10 00:42:37;;;;;;;112.37;53.70;;;6.80;1.00;;;;;;5028651;28;20187;-51
2023/04/10 00:45:02;;;;;;;120.07;57.43;;;6.70;1.00;;;;;;5026665;28;20443;-51
2023/04/10 00:47:29;;;;;;;112.67;53.80;;;6.70;1.00;;;;;;5032373;28;20683;-50
2023/04/10 00:49:54;;;;;;;117.67;55.00;;;6.70;99.90;;;;;;5032225;28;20679;-51
2023/04/10 00:52:20;;;;;;;122.70;57.73;;;6.80;1.00;;;;;;5027812;28;20434;-52
2023/04/10 00:54:46;;;;;;;100.20;52.37;;;6.80;1.00;;;;;;5014124;28;20271;-51
2023/04/10 00:57:11;;;;;;;113.03;55.90;;;6.80;99.90;;;;;;5032088;28;20592;-50
2023/04/10 00:59:37;;;;;;;109.40;53.60;;;6.80;1.00;;;;;;5031161;28;20179;-55
2023/04/10 01:02:03;;;;;;;108.60;54.87;;;6.80;1.00;;;;;;5030987;28;20523;-51
2023/04/10 01:04:30;;;;;;;104.72;54.22;;;6.90;99.90;;;;;;5041771;28;20440;-50
2023/04/10 01:07:01;;;;;;;108.00;50.00;;;6.90;1.00;;;;;;5030608;28;20174;-51
2023/04/10 01:09:59;;;;;;;94.70;47.57;;;6.90;1.00;;;;;;5022766;28;21147;-52
2023/04/10 01:12:52;;;;;;;83.27;45.30;;;6.90;1.00;;;;;;5020408;28;20445;-51
2023/04/10 01:15:22;;;;;;;78.43;40.23;;;6.90;99.90;;;;;;5033138;28;20455;-50
2023/04/10 01:17:51;;;;;;;75.07;38.60;;;6.90;1.00;;;;;;5012500;28;20414;-51
2023/04/10 01:20:23;;;;;;;64.20;33.70;;;7.00;99.90;;;;;;5019774;28;20976;-51
2023/04/10 01:23:15;;;;;;;64.83;33.97;;;7.00;1.00;;;;;;5026279;28;20445;-51
2023/04/10 01:25:57;;;;;;;65.90;32.93;;;6.90;1.00;;;;;;5018446;28;20481;-51
2023/04/10 01:28:52;;;;;;;64.43;31.77;;;6.90;1.00;;;;;;5026622;28;20833;-50
2023/04/10 01:31:25;;;;;;;60.20;29.70;;;6.90;99.90;;;;;;5023280;28;21033;-50
2023/04/10 01:33:57;;;;;;;60.73;29.80;;;6.80;1.00;;;;;;5027406;28;20434;-50
2023/04/10 01:36:27;;;;;;;52.87;28.80;;;6.90;99.90;;;;;;5033021;28;20437;-50
2023/04/10 01:38:54;;;;;;;55.60;28.73;;;6.90;1.00;;;;;;5018161;28;20450;-50
2023/04/10 01:41:22;;;;;;;56.03;29.90;;;6.90;1.00;;;;;;5030569;28;20434;-49
2023/04/10 01:43:50;;;;;;;51.83;28.80;;;6.90;97.80;;;;;;5029501;28;20442;-50
2023/04/10 01:46:21;;;;;;;52.30;28.43;;;6.80;1.00;;;;;;5027835;28;20861;-52
2023/04/10 01:48:48;;;;;;;54.80;28.97;;;6.80;99.90;;;;;;5027525;28;20490;-50
2023/04/10 01:51:15;;;;;;;52.50;27.77;;;6.90;62.00;;;;;;5027397;28;20848;-50
2023/04/10 01:53:43;;;;;;;51.80;28.47;;;6.80;1.00;;;;;;5028347;28;20438;-50
2023/04/10 01:56:09;;;;;;;50.97;27.77;;;6.80;1.00;;;;;;5028272;28;20442;-50
2023/04/10 01:58:35;;;;;;;52.10;28.00;;;6.70;99.90;;;;;;5026023;28;20491;-50
2023/04/10 02:01:01;;;;;;;54.33;29.07;;;6.70;99.90;;;;;;5025590;28;20445;-51
2023/04/10 02:03:27;;;;;;;56.00;29.40;;;6.70;1.00;;;;;;5025144;28;20531;-51
2023/04/10 02:06:20;;;;;;;48.40;26.47;;;6.70;1.00;;;;;;5025785;28;20198;-50
2023/04/10 02:09:10;;;;;;;55.50;28.50;;;6.80;99.90;;;;;;5025078;28;20269;-51
2023/04/10 02:11:58;;;;;;;48.90;27.40;;;6.80;99.90;;;;;;4996427;28;20441;-51
2023/04/10 02:14:28;;;;;;;57.50;27.77;;;6.70;63.50;;;;;;5027192;28;20893;-51
2023/04/10 02:16:54;;;;;;;53.27;28.87;;;6.70;1.00;;;;;;5026998;28;20529;-51
2023/04/10 02:19:22;;;;;;;50.67;27.37;;;6.70;1.00;;;;;;5026419;28;20446;-51
2023/04/10 02:21:50;;;;;;;60.43;28.20;;;6.80;1.00;;;;;;5026152;28;20462;-51
2023/04/10 02:24:16;;;;;;;52.43;27.83;;;6.70;99.90;;;;;;5027175;28;20445;-51
2023/04/10 02:26:52;;;;;;;56.00;28.47;;;6.70;1.00;;;;;;5028083;28;20446;-51
2023/04/10 02:29:18;;;;;;;51.50;27.43;;;6.70;1.00;;;;;;5026776;28;20501;-51
2023/04/10 02:31:44;;;;;;;45.13;26.20;;;6.80;99.90;;;;;;5023799;28;20808;-51
2023/04/10 02:34:11;;;;;;;49.53;26.83;;;6.70;1.00;;;;;;5026103;28;20945;-50
2023/04/10 02:36:40;;;;;;;58.27;30.07;;;6.70;12.90;;;;;;5028505;28;20470;-51
2023/04/10 02:39:07;;;;;;;55.83;28.30;;;6.60;99.90;;;;;;5026289;28;20433;-51
2023/04/10 02:41:32;;;;;;;48.87;26.93;;;6.60;1.00;;;;;;5026595;28;20445;-50
2023/04/10 02:43:58;;;;;;;48.93;26.30;;;6.50;1.00;;;;;;5024487;28;20447;-51
2023/04/10 02:46:24;;;;;;;66.63;29.90;;;6.50;1.00;;;;;;5027040;28;20194;-52
2023/04/10 02:48:51;;;;;;;52.67;28.30;;;6.50;1.00;;;;;;5027793;28;20310;-51
2023/04/10 02:51:17;;;;;;;57.27;29.00;;;6.50;99.90;;;;;;5024797;28;20196;-51
2023/04/10 02:53:42;;;;;;;52.70;27.50;;;6.40;1.00;;;;;;5026036;28;20434;-51
2023/04/10 02:56:10;;;;;;;55.60;30.50;;;6.40;99.90;;;;;;5027953;28;20183;-52
2023/04/10 02:58:36;;;;;;;57.87;29.43;;;6.40;99.90;;;;;;5026182;28;20237;-51
2023/04/10 03:01:02;;;;;;;54.97;29.10;;;6.40;99.90;;;;;;5024460;28;20941;-52
2023/04/10 03:03:27;;;;;;;55.63;30.30;;;6.40;99.90;;;;;;5024353;28;20194;-50
2023/04/10 03:05:53;;;;;;;57.27;29.30;;;6.40;99.90;;;;;;5023063;28;20191;-51
2023/04/10 03:08:19;;;;;;;56.37;29.60;;;6.30;1.00;;;;;;5026072;28;20469;-52
2023/04/10 03:10:49;;;;;;;54.57;28.70;;;6.30;1.00;;;;;;5021629;28;20195;-51
2023/04/10 03:13:16;;;;;;;54.43;29.17;;;6.20;32.20;;;;;;5025400;28;20499;-51
2023/04/10 03:15:41;;;;;;;61.33;28.70;;;6.20;99.90;;;;;;5025117;28;20442;-51
2023/04/10 03:18:08;;;;;;;57.30;29.40;;;6.20;99.90;;;;;;5027416;28;20516;-50
2023/04/10 03:20:36;;;;;;;55.30;30.27;;;6.20;99.90;;;;;;5023987;28;20199;-50
2023/04/10 03:23:02;;;;;;;54.47;28.80;;;6.10;99.90;;;;;;5025594;28;20525;-51
2023/04/10 03:25:28;;;;;;;51.90;28.60;;;6.20;99.90;;;;;;5028210;28;20503;-50
2023/04/10 03:27:54;;;;;;;60.37;29.07;;;6.20;79.10;;;;;;5027790;28;20446;-52
2023/04/10 03:30:20;;;;;;;58.33;28.80;;;6.20;99.90;;;;;;5026144;28;20187;-51
2023/04/10 03:32:45;;;;;;;49.47;26.70;;;6.20;1.00;;;;;;5025206;28;20917;-51
2023/04/10 03:35:11;;;;;;;52.77;27.63;;;6.10;1.00;;;;;;5025294;28;20526;-51
2023/04/10 03:37:37;;;;;;;57.63;29.10;;;6.10;96.70;;;;;;5025103;28;20190;-50
2023/04/10 03:40:07;;;;;;;51.13;28.40;;;6.10;1.00;;;;;;5026405;28;20195;-50
2023/04/10 03:42:33;;;;;;;54.33;27.90;;;6.10;1.00;;;;;;5023315;28;20180;-51
2023/04/10 03:45:01;;;;;;;59.20;29.50;;;6.10;99.90;;;;;;5025303;28;20810;-52
2023/04/10 03:47:27;;;;;;;59.23;29.10;;;6.10;1.00;;;;;;5023809;28;20242;-50
2023/04/10 03:49:52;;;;;;;51.20;28.33;;;6.10;99.90;;;;;;5024646;28;20466;-52
2023/04/10 03:52:18;;;;;;;53.63;26.80;;;6.20;1.00;;;;;;5025865;28;20275;-51
2023/04/10 03:54:43;;;;;;;51.00;28.37;;;6.20;1.00;;;;;;5025539;28;20278;-51
2023/04/10 03:57:09;;;;;;;54.63;27.60;;;6.20;1.00;;;;;;5028621;28;20195;-51
2023/04/10 03:59:34;;;;;;;56.10;28.73;;;6.10;1.00;;;;;;5022890;28;20205;-52
2023/04/10 04:02:00;;;;;;;49.70;28.47;;;6.10;99.90;;;;;;5025719;28;21572;-51
2023/04/10 04:04:26;;;;;;;54.53;29.67;;;6.10;1.00;;;;;;5026072;28;20183;-50
2023/04/10 04:06:52;;;;;;;51.03;28.33;;;6.10;99.90;;;;;;5025351;28;20187;-51
2023/04/10 04:09:18;;;;;;;58.20;28.60;;;6.10;99.90;;;;;;5026164;28;20546;-52
2023/04/10 04:11:43;;;;;;;58.47;30.20;;;6.10;1.00;;;;;;5025808;28;20191;-51
2023/04/10 04:14:09;;;;;;;50.50;27.13;;;6.00;1.00;;;;;;5030252;28;20345;-52
2023/04/10 04:16:34;;;;;;;54.17;29.10;;;6.00;1.00;;;;;;5029408;28;20199;-52
2023/04/10 04:19:00;;;;;;;52.57;28.07;;;6.00;1.00;;;;;;5028635;28;20187;-51
2023/04/10 04:21:26;;;;;;;53.87;28.30;;;5.90;13.70;;;;;;5029799;28;20204;-51
2023/04/10 04:23:52;;;;;;;55.17;28.20;;;6.00;1.00;;;;;;5030151;28;20663;-51
2023/04/10 04:26:17;;;;;;;52.47;28.17;;;5.90;99.90;;;;;;5027956;28;20438;-51
2023/04/10 04:28:43;;;;;;;53.03;27.57;;;5.80;1.00;;;;;;5028143;28;20217;-52
2023/04/10 04:31:08;;;;;;;57.20;30.30;;;5.80;1.00;;;;;;5029480;28;20191;-51
2023/04/10 04:33:34;;;;;;;55.53;29.40;;;5.80;99.90;;;;;;5029399;28;20195;-52
2023/04/10 04:36:00;;;;;;;56.03;28.60;;;5.70;99.90;;;;;;5028372;28;20191;-50
2023/04/10 04:38:25;;;;;;;53.60;28.73;;;5.80;1.00;;;;;;5028521;28;20651;-51
2023/04/10 04:40:51;;;;;;;58.37;29.03;;;5.70;99.90;;;;;;5030114;28;20222;-50
2023/04/10 04:43:16;;;;;;;62.60;29.10;;;5.70;1.00;;;;;;5026783;28;20198;-51
2023/04/10 04:45:42;;;;;;;54.27;28.93;;;5.70;99.90;;;;;;5028365;28;20188;-50
2023/04/10 04:48:08;;;;;;;58.00;28.37;;;5.70;99.90;;;;;;5028912;28;20706;-51
2023/04/10 04:50:33;;;;;;;59.77;29.23;;;5.80;99.90;;;;;;5028484;28;20590;-51
2023/04/10 04:52:59;;;;;;;58.07;29.07;;;5.80;1.00;;;;;;5026083;28;20191;-51
2023/04/10 04:55:25;;;;;;;58.13;28.37;;;5.80;99.90;;;;;;5029652;28;20192;-50
2023/04/10 04:57:51;;;;;;;55.23;28.13;;;5.90;1.00;;;;;;5031004;28;20446;-51
2023/04/10 05:00:16;;;;;;;56.50;29.20;;;5.90;1.00;;;;;;5029196;28;20191;-51
2023/04/10 05:02:42;;;;;;;56.80;29.20;;;5.90;99.90;;;;;;5030888;28;20184;-51
2023/04/10 05:05:08;;;;;;;56.90;29.67;;;6.00;99.90;;;;;;5029284;28;20198;-53
2023/04/10 05:07:33;;;;;;;55.53;28.10;;;6.00;99.90;;;;;;5028349;28;20195;-52
2023/04/10 05:09:59;;;;;;;55.43;27.50;;;6.10;1.00;;;;;;5028584;28;20218;-52
2023/04/10 05:12:25;;;;;;;53.53;27.13;;;6.10;1.00;;;;;;5025059;28;20206;-53
2023/04/10 05:14:50;;;;;;;53.47;28.93;;;6.10;99.90;;;;;;5029701;28;20188;-51
2023/04/10 05:17:16;;;;;;;55.40;28.47;;;6.20;1.00;;;;;;5029787;28;20226;-51
2023/04/10 05:19:42;;;;;;;50.50;27.13;;;6.20;1.00;;;;;;5028921;28;20278;-51
2023/04/10 05:22:07;;;;;;;50.60;28.13;;;6.30;1.00;;;;;;5029648;28;20190;-54
2023/04/10 05:24:33;;;;;;;59.37;28.97;;;6.40;99.90;;;;;;5025481;28;20442;-51
2023/04/10 05:26:59;;;;;;;48.57;25.90;;;6.40;1.00;;;;;;5029168;28;20295;-51
2023/04/10 05:29:25;;;;;;;48.03;26.97;;;6.60;1.00;;;;;;5026595;28;20231;-51
2023/04/10 05:31:51;;;;;;;53.13;27.93;;;6.60;99.90;;;;;;5027022;28;20457;-51
2023/04/10 05:34:16;;;;;;;51.17;27.20;;;6.80;1.00;;;;;;5027732;28;20539;-52
2023/04/10 05:36:42;;;;;;;52.23;27.77;;;6.90;99.90;;;;;;5028074;28;20442;-51
2023/04/10 05:39:08;;;;;;;54.47;29.00;;;6.90;99.90;;;;;;5028727;28;20202;-52
2023/04/10 05:41:33;;;;;;;50.60;27.10;;;7.10;63.70;;;;;;5028296;28;20188;-51
2023/04/10 05:43:59;;;;;;;49.70;27.63;;;7.10;1.00;;;;;;5025627;28;20202;-51
2023/04/10 05:46:25;;;;;;;47.87;26.40;;;7.20;1.00;;;;;;5028010;28;20187;-52
2023/04/10 05:48:51;;;;;;;45.93;25.97;;;7.30;1.00;;;;;;5027603;28;20218;-51
2023/04/10 05:51:17;;;;;;;50.03;26.13;;;7.40;1.00;;;;;;5027658;28;20195;-51
2023/04/10 05:53:43;;;;;;;51.13;27.10;;;7.40;99.90;;;;;;5025231;28;20459;-52
2023/04/10 05:56:09;;;;;;;47.83;27.10;;;7.50;99.90;;;;;;5026316;28;20187;-52
2023/04/10 05:58:34;;;;;;;44.73;25.13;;;7.50;99.90;;;;;;5027501;28;20590;-51
2023/04/10 06:01:00;;;;;;;49.63;26.63;;;7.50;99.90;;;;;;5026956;28;20203;-52
2023/04/10 06:03:29;;;;;;;48.87;26.10;;;7.50;99.90;;;;;;5028393;28;20670;-52
2023/04/10 06:05:56;;;;;;;44.90;24.30;;;7.60;99.90;;;;;;5027033;28;20252;-51
2023/04/10 06:08:22;;;;;;;47.37;26.67;;;7.60;99.90;;;;;;5026096;28;20538;-51
2023/04/10 06:10:47;;;;;;;48.93;25.77;;;7.70;99.90;;;;;;5027864;28;20441;-51
2023/04/10 06:13:16;;;;;;;48.37;25.97;;;7.70;99.90;;;;;;5027035;28;20638;-51
2023/04/10 06:15:42;;;;;;;48.23;25.93;;;7.80;99.90;;;;;;5026736;28;20191;-52
2023/04/10 06:18:08;;;;;;;49.40;26.50;;;7.80;99.90;;;;;;5027898;28;20445;-54
2023/04/10 06:20:33;;;;;;;48.40;28.07;;;7.90;95.30;;;;;;5026359;28;20259;-52
2023/04/10 06:22:59;;;;;;;48.03;27.20;;;7.90;81.20;;;;;;5025143;28;20528;-51
2023/04/10 06:25:25;;;;;;;44.40;25.47;;;8.00;62.10;;;;;;5028373;28;20242;-52
2023/04/10 06:27:51;;;;;;;45.93;26.73;;;8.10;40.90;;;;;;5025678;28;20199;-52
2023/04/10 06:30:16;;;;;;;43.87;24.47;;;8.30;12.60;;;;;;5027716;28;20813;-52
2023/04/10 06:32:42;;;;;;;44.83;24.73;;;8.50;1.70;;;;;;5027224;28;20329;-52
2023/04/10 06:35:08;;;;;;;43.70;25.47;;;8.60;1.00;;;;;;5024679;28;20286;-54
2023/04/10 06:37:34;;;;;;;46.10;25.77;;;8.80;1.00;;;;;;5027291;28;20678;-51
2023/04/10 06:40:19;;;;;;;45.10;24.20;;;8.80;1.00;;;;;;5024687;28;20773;-52
2023/04/10 06:42:45;;;;;;;40.90;24.37;;;9.00;1.00;;;;;;5023012;28;20227;-52
2023/04/10 06:45:10;;;;;;;41.33;24.10;;;9.00;1.00;;;;;;5025347;28;20476;-52
2023/04/10 06:47:36;;;;;;;44.87;25.43;;;9.10;1.00;;;;;;5025144;28;20328;-51
2023/04/10 06:50:02;;;;;;;40.40;24.37;;;9.30;1.00;;;;;;5026284;28;20215;-51
2023/04/10 06:52:27;;;;;;;40.87;23.90;;;9.40;1.00;;;;;;5025164;28;20266;-51
2023/04/10 06:54:53;;;;;;;40.00;24.00;;;9.60;1.00;;;;;;5027424;28;20187;-52
2023/04/10 06:57:18;;;;;;;41.00;23.67;;;9.70;1.00;;;;;;5025662;28;20636;-51
2023/04/10 06:59:44;;;;;;;40.60;24.93;;;9.80;1.00;;;;;;5027403;28;20234;-51
2023/04/10 07:02:10;;;;;;;40.40;24.63;;;9.90;1.00;;;;;;5025663;28;20247;-51
2023/04/10 07:04:36;;;;;;;45.30;26.07;;;10.00;1.00;;;;;;5026912;28;20183;-52
2023/04/10 07:07:01;;;;;;;39.20;23.10;;;10.10;1.00;;;;;;5024245;28;20194;-51
2023/04/10 07:09:28;;;;;;;42.47;24.00;;;10.10;1.00;;;;;;5025370;28;20247;-51
2023/04/10 07:11:54;;;;;;;38.60;23.70;;;10.20;1.00;;;;;;5022232;28;20183;-51
2023/04/10 07:14:20;;;;;;;35.07;23.00;;;10.40;1.00;;;;;;5026173;28;20445;-51
2023/04/10 07:16:45;;;;;;;41.47;24.23;;;10.60;1.00;;;;;;5026581;28;20209;-51
2023/04/10 07:19:11;;;;;;;37.40;22.60;;;10.90;1.00;;;;;;5023907;28;20184;-51
2023/04/10 07:21:36;;;;;;;36.83;22.70;;;11.20;1.00;;;;;;5028011;28;20192;-52
2023/04/10 07:24:02;;;;;;;39.77;23.60;;;11.40;1.00;;;;;;5025058;28;20310;-52
2023/04/10 07:26:27;;;;;;;39.17;22.53;;;11.50;1.00;;;;;;5027067;28;20194;-51
2023/04/10 07:28:53;;;;;;;38.30;24.03;;;11.40;1.00;;;;;;5021509;28;20212;-52
2023/04/10 07:31:19;;;;;;;36.40;23.37;;;11.50;1.00;;;;;;5025753;28;20248;-52
2023/04/10 07:33:45;;;;;;;42.97;24.57;;;11.70;1.00;;;;;;5025749;28;20712;-52
2023/04/10 07:36:11;;;;;;;40.00;23.40;;;11.90;1.00;;;;;;5022867;28;20229;-53
2023/04/10 07:38:37;;;;;;;40.10;25.37;;;12.20;1.00;;;;;;5023841;28;20430;-52
2023/04/10 07:41:03;;;;;;;36.70;22.87;;;12.60;1.00;;;;;;5025683;28;20487;-52
2023/04/10 07:43:29;;;;;;;32.93;21.57;;;12.90;1.00;;;;;;5024456;28;20266;-54
2023/04/10 07:45:55;;;;;;;36.90;21.87;;;13.40;1.00;;;;;;5026180;28;20535;-53
2023/04/10 07:48:21;;;;;;;31.87;20.60;;;13.80;1.00;;;;;;5031295;28;20235;-52
2023/04/10 07:50:47;;;;;;;34.50;20.63;;;14.20;1.00;;;;;;5027023;28;20502;-52
2023/04/10 07:53:12;;;;;;;32.30;21.73;;;14.40;1.00;;;;;;5028506;28;20543;-52
2023/04/10 07:55:39;;;;;;;37.93;22.60;;;14.40;1.00;;;;;;5030651;28;20191;-54
2023/04/10 07:58:05;;;;;;;32.90;22.60;;;14.80;1.00;;;;;;5029106;28;20205;-53
2023/04/10 08:00:31;;;;;;;31.17;22.10;;;15.00;1.00;;;;;;5032027;28;20458;-54
2023/04/10 08:02:57;;;;;;;30.13;20.90;;;14.80;1.00;;;;;;5030398;28;20942;-54
2023/04/10 08:05:22;;;;;;;32.63;21.00;;;15.00;1.00;;;;;;5027865;28;20476;-54
2023/04/10 08:07:48;;;;;;;32.17;21.03;;;15.30;1.00;;;;;;5029093;28;20659;-53
2023/04/10 08:10:14;;;;;;;28.20;19.03;;;15.40;1.00;;;;;;5028877;28;20230;-54
2023/04/10 08:12:39;;;;;;;32.97;22.40;;;15.50;1.00;;;;;;5028898;28;20248;-54
2023/04/10 08:15:05;;;;;;;29.03;20.30;;;15.70;1.00;;;;;;5029502;28;20477;-54
2023/04/10 08:17:31;;;;;;;28.27;20.57;;;16.10;1.00;;;;;;5030953;28;20244;-54
2023/04/10 08:19:56;;;;;;;28.33;20.03;;;16.60;1.00;;;;;;5029654;28;20440;-55
2023/04/10 08:22:22;;;;;;;29.10;19.57;;;17.10;1.00;;;;;;5028170;28;20631;-55
2023/04/10 08:24:48;;;;;;;29.80;21.13;;;16.80;1.00;;;;;;5029191;28;20184;-55
2023/04/10 08:27:15;;;;;;;30.80;21.37;;;17.00;1.00;;;;;;5031703;28;20203;-56
2023/04/10 08:29:41;;;;;;;29.63;21.03;;;17.40;1.00;;;;;;5028452;28;20239;-54
2023/04/10 08:32:06;;;;;;;29.40;21.13;;;17.50;1.00;;;;;;5026511;28;20838;-54
2023/04/10 08:34:32;;;;;;;28.80;20.73;;;17.30;1.00;;;;;;5029001;28;20193;-54
2023/04/10 08:36:58;;;;;;;28.83;19.73;;;16.90;1.00;;;;;;5028939;28;20219;-54
2023/04/10 08:39:23;;;;;;;29.17;20.30;;;16.80;1.00;;;;;;5030591;28;20197;-54
2023/04/10 08:41:49;;;;;;;28.10;20.40;;;17.00;1.00;;;;;;5028344;28;20189;-54
2023/04/10 08:44:15;;;;;;;31.37;21.70;;;17.20;1.00;;;;;;5028352;28;20253;-55
2023/04/10 08:46:44;;;;;;;28.20;20.57;;;17.20;1.00;;;;;;5028801;28;20444;-55
2023/04/10 08:49:16;;;;;;;27.17;19.63;;;17.50;1.00;;;;;;5029041;28;20475;-52
2023/04/10 08:51:59;;;;;;;31.63;19.60;;;18.00;1.00;;;;;;5029954;28;20435;-53
2023/04/10 08:54:31;;;;;;;27.33;18.27;;;18.20;1.00;;;;;;5029037;28;20561;-53
2023/04/10 08:56:59;;;;;;;24.60;17.70;;;18.10;1.00;;;;;;5027765;28;20507;-54
2023/04/10 08:59:28;;;;;;;24.80;18.20;;;18.50;1.00;;;;;;5026707;28;20522;-54
2023/04/10 09:01:54;;;;;;;28.40;19.33;;;18.30;1.00;;;;;;5027949;28;20441;-54
2023/04/10 09:04:21;;;;;;;29.57;18.53;;;18.40;1.00;;;;;;5029299;28;20794;-53
2023/04/10 09:06:46;;;;;;;28.10;19.40;;;18.60;1.00;;;;;;5026840;28;20441;-54
2023/04/10 09:09:12;;;;;;;25.47;18.77;;;18.40;1.00;;;;;;5028778;28;20495;-54
2023/04/10 09:11:55;;;;;;;75.00;44.57;;;18.30;1.00;;;;;;5028263;28;20680;-57
2023/04/10 09:14:25;;;;;;;25.73;19.30;;;18.50;1.00;;;;;;5026915;28;20616;-54
2023/04/10 09:16:51;;;;;;;24.00;18.10;;;18.50;1.00;;;;;;5027778;28;20456;-54
2023/04/10 09:19:47;;;;;;;23.00;16.53;;;18.90;1.00;;;;;;5025996;28;21030;-54
2023/04/10 09:22:13;;;;;;;23.97;17.40;;;19.10;1.00;;;;;;5026806;28;20515;-53
2023/04/10 09:24:42;;;;;;;21.70;17.27;;;19.00;1.00;;;;;;5027956;28;20486;-55
2023/04/10 09:27:08;;;;;;;20.05;15.15;;;19.10;1.00;;;;;;5026380;28;20423;-58
2023/04/10 09:29:48;;;;;;;18.83;15.47;;;18.90;1.00;;;;;;5029165;28;20308;-55
2023/04/10 09:32:40;;;;;;;22.07;14.87;;;19.00;1.00;;;;;;5027154;28;20952;-54
2023/04/10 09:35:07;;;;;;;21.73;15.63;;;18.90;1.00;;;;;;5028549;28;20483;-53
2023/04/10 09:37:34;;;;;;;24.03;15.27;;;18.80;1.00;;;;;;5027818;28;20444;-54
2023/04/10 09:40:00;;;;;;;19.53;14.70;;;18.50;1.00;;;;;;5027620;28;20460;-54
2023/04/10 09:42:33;;;;;;;22.10;15.33;;;18.30;1.00;;;;;;5028328;28;21388;-55
2023/04/10 09:45:00;;;;;;;20.80;14.40;;;18.40;1.00;;;;;;5021963;28;20507;-54
2023/04/10 09:47:27;;;;;;;18.87;13.47;;;18.60;1.00;;;;;;5025865;28;20575;-54
2023/04/10 09:49:59;;;;;;;19.80;14.17;;;18.70;1.00;;;;;;5025846;28;20502;-54
2023/04/10 09:52:30;;;;;;;17.23;13.97;;;18.40;1.00;;;;;;5027695;28;20732;-52
2023/04/10 09:55:00;;;;;;;17.07;13.07;;;18.10;1.00;;;;;;5026523;28;20438;-53
2023/04/10 09:57:28;;;;;;;18.10;14.33;;;17.80;1.00;;;;;;5024509;28;20476;-54
2023/04/10 09:59:56;;;;;;;17.00;13.37;;;17.80;1.00;;;;;;5027619;28;20544;-54
2023/04/10 10:02:24;;;;;;;20.83;11.90;;;17.80;1.00;;;;;;5029349;28;20437;-53
2023/04/10 10:04:51;;;;;;;16.53;12.87;;;17.80;1.00;;;;;;5027438;28;21134;-53
2023/04/10 10:07:21;;;;;;;17.07;12.90;;;17.80;1.00;;;;;;5028673;28;20472;-53
2023/04/10 10:09:51;;;;;;;14.13;11.67;;;18.10;1.00;;;;;;5020572;28;20478;-53
2023/04/10 10:12:39;;;;;;;14.13;11.40;;;18.30;1.00;;;;;;5026670;28;20959;-53
2023/04/10 10:15:45;;;;;;;15.23;11.57;;;18.60;1.00;;;;;;5027223;28;20456;-52
2023/04/10 10:18:21;;;;;;;15.07;11.47;;;18.80;1.00;;;;;;4987306;28;20448;-52
2023/04/10 10:20:49;;;;;;;14.80;11.70;;;18.90;1.00;;;;;;5026032;28;20788;-53
2023/04/10 10:23:14;;;;;;;15.77;11.40;;;19.10;1.00;;;;;;5016504;28;20797;-52
2023/04/10 10:25:41;;;;;;;13.60;10.53;;;19.60;1.00;;;;;;5027137;28;20453;-53
2023/04/10 10:28:11;;;;;;;17.13;12.13;;;19.60;1.00;;;;;;5027085;28;20591;-54
2023/04/10 10:30:37;;;;;;;14.40;11.80;;;19.70;1.00;;;;;;5027570;28;20447;-55
2023/04/10 10:33:06;;;;;;;14.47;10.83;;;19.70;1.00;;;;;;5028332;28;20477;-53
2023/04/10 10:35:34;;;;;;;14.50;10.83;;;20.30;1.00;;;;;;5026408;28;20444;-55
2023/04/10 10:38:02;;;;;;;12.97;10.90;;;20.60;1.00;;;;;;5024557;28;20446;-54
2023/04/10 10:40:29;;;;;;;12.93;10.27;;;20.90;1.00;;;;;;5027314;28;20536;-54
2023/04/10 10:43:03;;;;;;;12.77;10.17;;;21.20;1.00;;;;;;5028275;28;20532;-55
2023/04/10 10:46:01;;;;;;;11.20;9.47;;;21.10;1.00;;;;;;5025401;28;20449;-53
2023/04/10 10:48:27;;;;;;;10.93;9.75;;;20.70;1.00;;;;;;5015061;28;20869;-54
2023/04/10 10:50:57;;;;;;;14.17;10.57;;;20.70;1.00;;;;;;5027729;28;20193;-53
2023/04/10 10:53:44;;;;;;;13.03;10.00;;;20.50;1.00;;;;;;5025702;28;20210;-54
2023/04/10 10:56:19;;;;;;;11.57;9.87;;;20.10;1.00;;;;;;5023511;28;20457;-54
2023/04/10 10:58:47;;;;;;;16.40;9.83;;;20.30;1.00;;;;;;5023338;28;20448;-53
2023/04/10 11:01:13;;;;;;;10.27;9.03;;;19.90;1.00;;;;;;5027198;28;20440;-53
2023/04/10 11:03:39;;;;;;;9.90;8.50;;;20.10;1.00;;;;;;5027066;28;20550;-54
2023/04/10 11:06:11;;;;;;;15.20;9.63;;;20.50;1.00;;;;;;5027796;28;20881;-55
2023/04/10 11:08:42;;;;;;;11.50;7.83;;;21.00;1.00;;;;;;5024223;28;20489;-55
2023/04/10 11:11:09;;;;;;;8.93;8.03;;;21.40;1.00;;;;;;5026831;28;20437;-56
2023/04/10 11:13:40;;;;;;;8.63;7.73;;;21.60;1.00;;;;;;5027815;28;20454;-54
2023/04/10 11:16:10;;;;;;;12.90;8.70;;;21.80;1.00;;;;;;5025690;28;20477;-54
2023/04/10 11:18:45;;;;;;;9.80;8.03;;;21.40;1.00;;;;;;5026356;28;20444;-54
2023/04/10 11:21:18;;;;;;;13.50;7.40;;;21.50;1.00;;;;;;5028985;28;20448;-55
2023/04/10 11:23:51;;;;;;;10.23;8.20;;;22.30;1.00;;;;;;5029969;28;20459;-53
2023/04/10 11:26:32;;;;;;;10.83;7.23;;;23.00;1.00;;;;;;5031363;28;20468;-53
2023/04/10 11:28:58;;;;;;;8.00;7.20;;;23.30;1.00;;;;;;5029793;28;21071;-54
2023/04/10 11:31:24;;;;;;;8.90;8.00;;;23.50;99.90;;;;;;5030617;28;20992;-53
2023/04/10 11:34:01;;;;;;;8.83;7.77;;;23.80;99.90;;;;;;5031248;28;20433;-54
2023/04/10 11:36:27;;;;;;;8.73;7.80;;;24.30;99.90;;;;;;5030621;28;20445;-54
2023/04/10 11:38:57;;;;;;;10.73;8.23;;;24.40;99.90;;;;;;5031929;28;20451;-54
2023/04/10 11:41:49;;;;;;;9.17;7.60;;;24.40;99.90;;;;;;5030917;28;20437;-55
2023/04/10 11:44:34;;;;;;;7.93;7.13;;;23.60;99.90;;;;;;5029839;28;20473;-53
2023/04/10 11:46:59;;;;;;;8.63;7.43;;;24.00;99.90;;;;;;5030314;28;20536;-54
2023/04/10 11:49:33;;;;;;;8.30;7.50;;;24.10;99.90;;;;;;5031231;28;20479;-53
2023/04/10 11:51:58;;;;;;;7.17;6.47;;;23.40;99.90;;;;;;5027249;28;20213;-54
2023/04/10 11:54:26;;;;;;;7.67;6.90;;;23.00;99.90;;;;;;5029574;28;21022;-54
2023/04/10 11:57:06;;;;;;;6.77;6.17;;;22.90;99.90;;;;;;5029906;28;20186;-55
2023/04/10 11:59:32;;;;;;;6.70;6.00;;;23.20;99.90;;;;;;5029144;28;20815;-55
2023/04/10 12:02:13;;;;;;;6.80;6.10;;;23.40;99.90;;;;;;5030242;28;20458;-55
2023/04/10 12:04:40;;;;;;;9.27;6.77;;;23.60;99.90;;;;;;5029304;28;20511;-55
2023/04/10 12:07:06;;;;;;;7.83;6.67;;;23.50;99.90;;;;;;5030096;28;20432;-55
2023/04/10 12:09:32;;;;;;;7.77;6.97;;;23.50;99.90;;;;;;5029879;28;20575;-56
2023/04/10 12:12:02;;;;;;;7.90;7.10;;;23.30;99.90;;;;;;5029360;28;20543;-54
2023/04/10 12:14:40;;;;;;;7.73;6.50;;;22.70;99.90;;;;;;5028096;28;20693;-55
2023/04/10 12:17:11;;;;;;;7.93;7.13;;;22.80;99.90;;;;;;5028127;28;20831;-55
2023/04/10 12:19:38;;;;;;;8.10;7.10;;;22.20;99.90;;;;;;5027451;28;21259;-53
2023/04/10 12:22:04;;;;;;;7.80;6.97;;;22.10;99.90;;;;;;5034047;28;20452;-54
2023/04/10 12:24:49;;;;;;;8.20;7.17;;;22.30;99.90;;;;;;5030702;28;20451;-54
2023/04/10 12:27:26;;;;;;;7.70;6.93;;;22.00;99.90;;;;;;5031653;28;20674;-54
2023/04/10 12:29:54;;;;;;;7.40;6.70;;;21.80;99.90;;;;;;5028885;28;21089;-54
2023/04/10 12:32:21;;;;;;;7.33;6.63;;;21.70;99.90;;;;;;5028558;28;20937;-54
2023/04/10 12:34:50;;;;;;;7.00;6.30;;;21.50;99.90;;;;;;5031216;28;20444;-53
2023/04/10 12:37:16;;;;;;;8.00;6.47;;;21.40;99.90;;;;;;5030863;28;20436;-55
2023/04/10 12:39:41;;;;;;;7.27;6.30;;;21.50;99.90;;;;;;5030930;28;21031;-54
2023/04/10 12:42:16;;;;;;;7.90;6.67;;;21.50;99.90;;;;;;5030260;28;20645;-55
2023/04/10 12:44:56;;;;;;;7.30;6.33;;;21.70;99.90;;;;;;5027347;28;20193;-55
2023/04/10 12:47:22;;;;;;;11.43;6.47;;;22.00;1.00;;;;;;5028391;28;20498;-53